Airport Name : Jyvaskyla

Other Name : Jyvaskyla

ICAO : EFJY

IATA : JYV

FAA :

Latitude : 62.399453

Longitude : 25.678253

Country : Finland

Local Date and Time : 28 Feb 2024 23:25

 

TAF (Terminal Aerodrome Forecast)

TAF EFJY 282032Z 2821/2921 20007KT 9999 OVC007 TEMPO 2821/2824 4000 -FZDZSN BKN015 PROB40 2900/2909 2500 -FZDZ BR BKN004 BECMG 2909/2911 BKN012 PROB40 TEMPO 2915/2921 BKN015

 

METAR (METeorological Aerodrome Report)

EFJY 282120Z AUTO 21005KT 9999 OVC016 M01/M04 Q1014

EFJY 282050Z AUTO 22008KT 190V250 9999 OVC015 M01/M04 Q1014

EFJY 282020Z AUTO 22008KT 180V250 9999 -SHSN OVC015 M01/M04 Q1014

EFJY 281950Z AUTO 22005KT 180V250 9999 OVC014 M01/M03 Q1014

EFJY 281920Z AUTO 21005KT 180V240 9999 OVC017 M01/M03 Q1013

EFJY 281850Z AUTO 20006KT 170V240 9999 OVC013 M01/M03 Q1013

EFJY 281820Z AUTO 20006KT 9999 FEW007 OVC013 M01/M02 Q1013

EFJY 281750Z AUTO 23006KT 190V260 6000 2700 -FZRASN OVC008 M01/M02 Q1014